Time;durP1;ratioP1;P1;durP2;ratioP2;P2;SDS_P1;SDS_P2;PMS_P1;PMS_P2;Temp;Humidity;BMP_temperature;BMP_pressure;BME280_temperature;BME280_humidity;BME280_pressure;Samples;Min_cycle;Max_cycle;Signal;HPM_P1;HPM_P2
2023/09/30 00:02:06;;;;;;;8.18;7.38;;;;;;;;;;5157494;27;20370;-59
2023/09/30 00:04:32;;;;;;;8.52;7.00;;;;;;;;;;5157596;27;20039;-68
2023/09/30 00:06:57;;;;;;;9.07;7.03;;;;;;;;;;5157507;27;20113;-68
2023/09/30 00:09:23;;;;;;;7.95;6.82;;;;;;;;;;5156176;27;20083;-68
2023/09/30 00:11:48;;;;;;;8.18;7.07;;;;;;;;;;5155878;27;20118;-67
2023/09/30 00:14:14;;;;;;;7.97;6.95;;;;;;;;;;5155983;27;20375;-67
2023/09/30 00:16:40;;;;;;;8.98;7.18;;;;;;;;;;5157497;27;20479;-67
2023/09/30 00:19:05;;;;;;;8.38;7.32;;;;;;;;;;5168778;27;20038;-67
2023/09/30 00:21:31;;;;;;;9.55;7.00;;;;;;;;;;5159270;27;20043;-67
2023/09/30 00:23:56;;;;;;;7.75;6.95;;;;;;;;;;5177990;27;20037;-67
2023/09/30 00:26:28;;;;;;;9.10;6.82;;;;;;;;;;5177479;27;20093;-69
2023/09/30 00:29:00;;;;;;;8.52;7.10;;;;;;;;;;5177765;27;20054;-59
2023/09/30 00:31:25;;;;;;;9.57;6.55;;;;;;;;;;5159168;27;20463;-59
2023/09/30 00:33:50;;;;;;;8.52;7.47;;;;;;;;;;5177807;27;20033;-59
2023/09/30 00:36:16;;;;;;;9.32;6.97;;;;;;;;;;5177742;27;20248;-59
2023/09/30 00:38:41;;;;;;;13.95;8.07;;;;;;;;;;5177668;27;20101;-59
2023/09/30 00:41:07;;;;;;;9.40;8.13;;;;;;;;;;5158598;27;20038;-60
2023/09/30 00:43:33;;;;;;;10.00;7.90;;;;;;;;;;5177437;27;20034;-60
2023/09/30 00:46:05;;;;;;;8.38;7.00;;;;;;;;;;5177115;27;20075;-59
2023/09/30 00:48:31;;;;;;;8.15;7.35;;;;;;;;;;5158253;27;20034;-57
2023/09/30 00:50:58;;;;;;;9.00;6.80;;;;;;;;;;5176878;27;20113;-57
2023/09/30 00:53:23;;;;;;;9.00;7.20;;;;;;;;;;5177049;27;20533;-65
2023/09/30 00:55:51;;;;;;;7.85;6.72;;;;;;;;;;5158531;27;20065;-57
2023/09/30 00:58:16;;;;;;;10.15;7.35;;;;;;;;;;5158797;27;20045;-57
2023/09/30 01:00:42;;;;;;;9.57;6.97;;;;;;;;;;5157816;27;20088;-58
2023/09/30 01:03:08;;;;;;;8.60;6.82;;;;;;;;;;5177053;27;20387;-60
2023/09/30 01:05:33;;;;;;;7.32;6.63;;;;;;;;;;5176957;27;20368;-59
2023/09/30 01:08:01;;;;;;;7.82;6.13;;;;;;;;;;5158329;27;20034;-59
2023/09/30 01:10:27;;;;;;;9.70;6.75;;;;;;;;;;5157797;27;20030;-60
2023/09/30 01:12:52;;;;;;;8.18;7.30;;;;;;;;;;5158170;27;20387;-59
2023/09/30 01:15:17;;;;;;;8.90;6.53;;;;;;;;;;5177204;27;20066;-59
2023/09/30 01:17:43;;;;;;;9.07;6.45;;;;;;;;;;5177008;27;20038;-59
2023/09/30 01:20:11;;;;;;;7.80;6.22;;;;;;;;;;5176730;27;20099;-60
2023/09/30 01:22:36;;;;;;;6.97;6.28;;;;;;;;;;5176838;27;20117;-60
2023/09/30 01:25:01;;;;;;;7.90;6.43;;;;;;;;;;5176719;27;20061;-58
2023/09/30 01:27:27;;;;;;;6.90;6.07;;;;;;;;;;5176954;27;20035;-58
2023/09/30 01:29:52;;;;;;;6.95;5.80;;;;;;;;;;5177101;27;20023;-58
2023/09/30 01:32:18;;;;;;;6.28;5.63;;;;;;;;;;5176728;27;20034;-58
2023/09/30 01:34:44;;;;;;;9.20;6.53;;;;;;;;;;5176921;27;20034;-59
2023/09/30 01:37:11;;;;;;;7.03;6.32;;;;;;;;;;5176683;27;20042;-68
2023/09/30 01:39:37;;;;;;;7.05;6.15;;;;;;;;;;5157745;27;20034;-68
2023/09/30 01:42:04;;;;;;;6.50;5.82;;;;;;;;;;5176411;27;20464;-68
2023/09/30 01:44:32;;;;;;;5.82;5.20;;;;;;;;;;5140804;27;20038;-68
2023/09/30 01:46:58;;;;;;;6.18;5.63;;;;;;;;;;5157743;27;20030;-68
2023/09/30 01:49:24;;;;;;;7.22;5.63;;;;;;;;;;5140401;27;20495;-68
2023/09/30 01:51:49;;;;;;;6.45;5.85;;;;;;;;;;5176464;27;20366;-67
2023/09/30 01:54:15;;;;;;;6.80;6.13;;;;;;;;;;5157974;27;20038;-68
2023/09/30 01:56:40;;;;;;;6.32;5.72;;;;;;;;;;5176452;27;20467;-68
2023/09/30 01:59:06;;;;;;;6.25;5.68;;;;;;;;;;5157964;27;20452;-58
2023/09/30 02:01:31;;;;;;;7.75;6.28;;;;;;;;;;5157852;27;20050;-59
2023/09/30 02:03:57;;;;;;;6.38;5.82;;;;;;;;;;5176490;27;20109;-59
2023/09/30 02:06:22;;;;;;;8.05;6.63;;;;;;;;;;5157920;27;20027;-59
2023/09/30 02:08:48;;;;;;;7.18;6.47;;;;;;;;;;5176675;27;20114;-59
2023/09/30 02:11:13;;;;;;;7.28;6.18;;;;;;;;;;5146456;27;20035;-59
2023/09/30 02:13:40;;;;;;;7.57;6.47;;;;;;;;;;5140995;27;20039;-68
2023/09/30 02:16:05;;;;;;;7.10;6.32;;;;;;;;;;5140900;27;20035;-68
2023/09/30 02:18:32;;;;;;;7.75;6.60;;;;;;;;;;5159698;27;20102;-67
2023/09/30 02:20:59;;;;;;;6.32;5.68;;;;;;;;;;5141179;27;20070;-67
2023/09/30 02:23:25;;;;;;;7.05;6.43;;;;;;;;;;5159427;27;20085;-65
2023/09/30 02:25:50;;;;;;;7.95;6.85;;;;;;;;;;5140611;27;20066;-66
2023/09/30 02:28:15;;;;;;;8.48;6.07;;;;;;;;;;5159293;27;20023;-67
2023/09/30 02:30:41;;;;;;;8.40;6.55;;;;;;;;;;5140481;27;20046;-67
2023/09/30 02:33:07;;;;;;;6.72;5.88;;;;;;;;;;5123372;27;20034;-67
2023/09/30 02:35:32;;;;;;;6.50;6.00;;;;;;;;;;5159275;27;20039;-67
2023/09/30 02:37:58;;;;;;;7.07;6.22;;;;;;;;;;5158666;27;20046;-68
2023/09/30 02:40:25;;;;;;;8.13;6.10;;;;;;;;;;5158983;27;20073;-66
2023/09/30 02:42:51;;;;;;;7.70;5.68;;;;;;;;;;5158149;27;20043;-69
2023/09/30 02:45:19;;;;;;;5.68;5.07;;;;;;;;;;5157958;27;20118;-70
2023/09/30 02:47:45;;;;;;;5.78;5.38;;;;;;;;;;5158250;27;20135;-69
2023/09/30 02:50:16;;;;;;;6.28;5.43;;;;;;;;;;5159023;27;20492;-59
2023/09/30 02:52:42;;;;;;;5.93;5.32;;;;;;;;;;5158965;27;20038;-59
2023/09/30 02:55:08;;;;;;;6.00;5.50;;;;;;;;;;5140301;27;20045;-58
2023/09/30 02:57:35;;;;;;;5.40;5.00;;;;;;;;;;5158481;27;20037;-58
2023/09/30 03:00:11;;;;;;;5.68;5.13;;;;;;;;;;5140458;27;20035;-59
2023/09/30 03:02:36;;;;;;;6.00;5.40;;;;;;;;;;5140113;27;20045;-59
2023/09/30 03:05:02;;;;;;;5.60;5.10;;;;;;;;;;5140314;27;20367;-68
2023/09/30 03:07:29;;;;;;;5.60;5.13;;;;;;;;;;5122573;27;20030;-68
2023/09/30 03:09:55;;;;;;;6.18;4.75;;;;;;;;;;5140021;27;20083;-67
2023/09/30 03:12:20;;;;;;;6.07;5.40;;;;;;;;;;5179465;27;20499;-69
2023/09/30 03:14:46;;;;;;;5.50;5.07;;;;;;;;;;5179077;27;20034;-69
2023/09/30 03:17:12;;;;;;;6.53;5.70;;;;;;;;;;5160787;27;20444;-69
2023/09/30 03:19:38;;;;;;;12.02;5.85;;;;;;;;;;5179014;27;20034;-70
2023/09/30 03:22:04;;;;;;;6.72;5.93;;;;;;;;;;5160412;27;20054;-68
2023/09/30 03:24:30;;;;;;;9.50;6.88;;;;;;;;;;5178479;27;20034;-69
2023/09/30 03:26:55;;;;;;;7.68;6.50;;;;;;;;;;5179240;27;20035;-66
2023/09/30 03:29:21;;;;;;;10.70;7.18;;;;;;;;;;5178279;27;20034;-65
2023/09/30 03:31:46;;;;;;;8.10;6.65;;;;;;;;;;5178443;27;20484;-68
2023/09/30 03:34:13;;;;;;;7.05;6.45;;;;;;;;;;5178535;27;20037;-67
2023/09/30 03:36:41;;;;;;;9.10;7.60;;;;;;;;;;5178661;27;20387;-68
2023/09/30 03:39:08;;;;;;;8.30;6.45;;;;;;;;;;5179054;27;20030;-57
2023/09/30 03:41:35;;;;;;;8.02;6.18;;;;;;;;;;5178516;27;20037;-59
2023/09/30 03:44:01;;;;;;;6.68;6.00;;;;;;;;;;5160303;27;20097;-59
2023/09/30 03:46:27;;;;;;;8.93;7.15;;;;;;;;;;5159818;27;20045;-60
2023/09/30 03:48:52;;;;;;;8.15;6.15;;;;;;;;;;5178502;27;20018;-70
2023/09/30 03:51:18;;;;;;;8.52;6.30;;;;;;;;;;5178783;27;20042;-70
2023/09/30 03:53:46;;;;;;;7.90;6.65;;;;;;;;;;5178352;27;20038;-70
2023/09/30 03:56:12;;;;;;;7.28;6.57;;;;;;;;;;5178664;27;20471;-70
2023/09/30 03:58:41;;;;;;;6.82;6.10;;;;;;;;;;5178251;27;20112;-70
2023/09/30 04:01:13;;;;;;;6.47;5.78;;;;;;;;;;5178334;27;20042;-69
2023/09/30 04:03:40;;;;;;;7.18;6.32;;;;;;;;;;5177265;27;20122;-69
2023/09/30 04:06:08;;;;;;;6.68;5.82;;;;;;;;;;5158924;27;20125;-68
2023/09/30 04:08:34;;;;;;;7.38;6.18;;;;;;;;;;5159054;27;20038;-68
2023/09/30 04:11:00;;;;;;;6.63;5.32;;;;;;;;;;5177853;27;20045;-67
2023/09/30 04:13:25;;;;;;;8.15;6.72;;;;;;;;;;5178186;27;20436;-68
2023/09/30 04:15:51;;;;;;;9.13;6.75;;;;;;;;;;5158905;27;20091;-68
2023/09/30 04:18:16;;;;;;;8.18;6.55;;;;;;;;;;5159412;27;20046;-68
2023/09/30 04:20:42;;;;;;;9.30;7.10;;;;;;;;;;5178254;27;20044;-60
2023/09/30 04:23:09;;;;;;;7.85;6.57;;;;;;;;;;5178073;27;20129;-62
2023/09/30 04:25:35;;;;;;;7.40;6.70;;;;;;;;;;5178054;27;20041;-61
2023/09/30 04:28:02;;;;;;;9.80;7.28;;;;;;;;;;5177869;27;20030;-61
2023/09/30 04:30:27;;;;;;;7.78;6.90;;;;;;;;;;5177394;27;20117;-62
2023/09/30 04:32:54;;;;;;;6.90;6.07;;;;;;;;;;5177941;27;20066;-61
2023/09/30 04:35:19;;;;;;;7.60;5.60;;;;;;;;;;5176294;27;20038;-62
2023/09/30 04:37:46;;;;;;;7.82;6.00;;;;;;;;;;5177581;27;20030;-61
2023/09/30 04:40:20;;;;;;;6.45;5.78;;;;;;;;;;5158756;27;20375;-61
2023/09/30 04:42:49;;;;;;;6.63;5.20;;;;;;;;;;5176894;27;20045;-62
2023/09/30 04:45:19;;;;;;;6.70;5.28;;;;;;;;;;5176614;27;20027;-61
2023/09/30 04:47:45;;;;;;;8.95;5.85;;;;;;;;;;5176106;27;20033;-61
2023/09/30 04:50:13;;;;;;;9.02;7.05;;;;;;;;;;5176516;27;20027;-61
2023/09/30 04:52:40;;;;;;;7.63;6.05;;;;;;;;;;5157619;27;20041;-61
2023/09/30 04:55:06;;;;;;;7.78;6.97;;;;;;;;;;5158108;27;20050;-61
2023/09/30 04:57:34;;;;;;;10.52;7.53;;;;;;;;;;5149760;27;20041;-62
2023/09/30 05:00:00;;;;;;;8.57;7.68;;;;;;;;;;5172776;27;20735;-61
2023/09/30 05:02:25;;;;;;;9.75;7.30;;;;;;;;;;5173122;27;20045;-62
2023/09/30 05:08:50;;;;;;;8.18;6.97;;;;;;;;;;5177006;27;20502;-62
2023/09/30 05:19:05;;;;;;;6.40;5.80;;;;;;;;;;5176923;27;20060;-59
2023/09/30 05:25:07;;;;;;;7.95;6.53;;;;;;;;;;5176756;27;20082;-59
2023/09/30 05:31:08;;;;;;;8.45;5.57;;;;;;;;;;5176656;27;20033;-59
2023/09/30 05:37:09;;;;;;;6.65;5.95;;;;;;;;;;5176634;27;20028;-59
2023/09/30 05:43:13;;;;;;;7.60;6.78;;;;;;;;;;5176348;27;20041;-59
2023/09/30 05:49:14;;;;;;;9.73;6.78;;;;;;;;;;5183532;27;20157;-59
2023/09/30 05:55:16;;;;;;;8.77;7.32;;;;;;;;;;5183470;27;20094;-59
2023/09/30 06:01:18;;;;;;;9.40;7.90;;;;;;;;;;5157766;27;20410;-59
2023/09/30 06:03:46;;;;;;;10.63;7.93;;;;;;;;;;5155531;27;20124;-59
2023/09/30 06:06:12;;;;;;;8.18;7.18;;;;;;;;;;5157361;27;20038;-59
2023/09/30 06:08:38;;;;;;;9.32;7.38;;;;;;;;;;5156927;27;20099;-59
2023/09/30 06:11:03;;;;;;;12.00;8.63;;;;;;;;;;5157845;27;20042;-59
2023/09/30 06:13:31;;;;;;;12.73;9.32;;;;;;;;;;5158021;27;20353;-62
2023/09/30 06:15:56;;;;;;;12.80;9.55;;;;;;;;;;5157622;27;20044;-62
2023/09/30 06:18:22;;;;;;;12.07;8.68;;;;;;;;;;5156788;27;20039;-61
2023/09/30 06:20:48;;;;;;;9.20;8.15;;;;;;;;;;5158090;27;20039;-61
2023/09/30 06:23:14;;;;;;;11.18;7.95;;;;;;;;;;5158162;27;20023;-59
2023/09/30 06:25:39;;;;;;;9.90;8.10;;;;;;;;;;5157779;27;20038;-61
2023/09/30 06:28:05;;;;;;;10.55;8.13;;;;;;;;;;5157616;27;20126;-61
2023/09/30 06:30:33;;;;;;;13.00;8.57;;;;;;;;;;5157981;27;20042;-61
2023/09/30 06:32:59;;;;;;;11.18;7.18;;;;;;;;;;5158172;27;20118;-61
2023/09/30 06:35:26;;;;;;;7.60;6.85;;;;;;;;;;5157885;27;20054;-61
2023/09/30 06:37:51;;;;;;;10.77;7.97;;;;;;;;;;5157747;27;20043;-59
2023/09/30 06:40:17;;;;;;;8.95;8.00;;;;;;;;;;5157651;27;20192;-60
2023/09/30 06:42:42;;;;;;;9.10;7.15;;;;;;;;;;5138431;27;20034;-60
2023/09/30 06:45:09;;;;;;;9.05;7.72;;;;;;;;;;5156882;27;20482;-59
2023/09/30 06:47:36;;;;;;;9.35;7.50;;;;;;;;;;5156053;27;20118;-60
2023/09/30 06:50:12;;;;;;;9.10;8.00;;;;;;;;;;5157693;27;20049;-59
2023/09/30 06:52:41;;;;;;;8.80;7.90;;;;;;;;;;5157891;27;20038;-59
2023/09/30 06:55:07;;;;;;;8.32;7.43;;;;;;;;;;5157116;27;20038;-59
2023/09/30 06:57:33;;;;;;;8.20;7.25;;;;;;;;;;5156126;27;20037;-59
2023/09/30 06:59:59;;;;;;;9.10;8.27;;;;;;;;;;5153836;27;20114;-62
2023/09/30 07:02:24;;;;;;;11.60;7.97;;;;;;;;;;5153047;27;20402;-59
2023/09/30 07:04:50;;;;;;;13.13;8.85;;;;;;;;;;5154326;27;20030;-59
2023/09/30 07:07:15;;;;;;;10.63;8.15;;;;;;;;;;5153895;27;20086;-60
2023/09/30 07:09:41;;;;;;;11.20;8.75;;;;;;;;;;5153525;27;20029;-59
2023/09/30 07:12:07;;;;;;;10.32;8.77;;;;;;;;;;5134835;27;20092;-60
2023/09/30 07:14:32;;;;;;;9.82;7.68;;;;;;;;;;5156705;27;20066;-59
2023/09/30 07:16:58;;;;;;;13.98;9.20;;;;;;;;;;5170255;27;20069;-69
2023/09/30 07:19:23;;;;;;;10.60;9.50;;;;;;;;;;5174314;27;20034;-69
2023/09/30 07:21:48;;;;;;;11.32;9.57;;;;;;;;;;5174299;27;20034;-68
2023/09/30 07:24:14;;;;;;;10.13;8.95;;;;;;;;;;5156370;27;20440;-67
2023/09/30 07:26:40;;;;;;;12.93;9.10;;;;;;;;;;5174594;27;20054;-67
2023/09/30 07:29:05;;;;;;;12.05;8.55;;;;;;;;;;5175061;27;20352;-67
2023/09/30 07:31:35;;;;;;;17.20;9.38;;;;;;;;;;5176482;27;20030;-67
2023/09/30 07:34:01;;;;;;;12.88;9.05;;;;;;;;;;5157190;27;20042;-67
2023/09/30 07:36:26;;;;;;;12.38;9.55;;;;;;;;;;5175086;27;20410;-67
2023/09/30 07:38:52;;;;;;;12.38;9.32;;;;;;;;;;5155212;27;20463;-67
2023/09/30 07:41:24;;;;;;;13.60;8.68;;;;;;;;;;5174014;27;20489;-67
2023/09/30 07:43:49;;;;;;;10.00;8.40;;;;;;;;;;5174135;27;20125;-66
2023/09/30 07:46:15;;;;;;;12.50;8.73;;;;;;;;;;5174415;27;20070;-67
2023/09/30 07:48:41;;;;;;;12.85;8.95;;;;;;;;;;5156636;27;20041;-67
2023/09/30 07:51:09;;;;;;;11.20;9.18;;;;;;;;;;5152754;27;20034;-67
2023/09/30 07:53:35;;;;;;;11.32;8.20;;;;;;;;;;5152622;27;20057;-66
2023/09/30 07:56:00;;;;;;;11.57;8.95;;;;;;;;;;5152069;27;20042;-67
2023/09/30 07:58:25;;;;;;;13.18;8.38;;;;;;;;;;5133655;27;20048;-67
2023/09/30 08:00:51;;;;;;;14.00;8.73;;;;;;;;;;5152276;27;20043;-65
2023/09/30 08:03:16;;;;;;;10.23;8.38;;;;;;;;;;5151839;27;20039;-66
2023/09/30 08:05:42;;;;;;;10.82;8.10;;;;;;;;;;5151882;27;20042;-65
2023/09/30 08:08:07;;;;;;;9.05;7.43;;;;;;;;;;5133340;27;20116;-66
2023/09/30 08:10:33;;;;;;;10.57;8.75;;;;;;;;;;5151846;27;20092;-65
2023/09/30 08:13:02;;;;;;;13.80;8.43;;;;;;;;;;5151483;27;20049;-64
2023/09/30 08:15:27;;;;;;;11.98;9.02;;;;;;;;;;5060042;27;20121;-65
2023/09/30 08:17:52;;;;;;;12.40;9.10;;;;;;;;;;5046892;28;20052;-64
2023/09/30 08:20:18;;;;;;;11.23;8.32;;;;;;;;;;5046953;28;20505;-63
2023/09/30 08:22:44;;;;;;;13.73;8.77;;;;;;;;;;5046668;28;20075;-64
2023/09/30 08:25:10;;;;;;;10.02;8.00;;;;;;;;;;5046818;28;20439;-63
2023/09/30 08:27:39;;;;;;;9.82;7.63;;;;;;;;;;5115206;27;20052;-64
2023/09/30 08:30:05;;;;;;;13.32;11.10;;;;;;;;;;5115270;27;20037;-64
2023/09/30 08:32:34;;;;;;;14.50;11.27;;;;;;;;;;5046335;28;20045;-65
2023/09/30 08:35:00;;;;;;;9.88;8.15;;;;;;;;;;5046752;28;20821;-66
2023/09/30 08:37:25;;;;;;;9.60;8.48;;;;;;;;;;5046687;28;20048;-66
2023/09/30 08:39:51;;;;;;;12.93;9.70;;;;;;;;;;5115053;27;20072;-62
2023/09/30 08:42:18;;;;;;;10.27;8.23;;;;;;;;;;5046489;28;20672;-66
2023/09/30 08:44:44;;;;;;;13.02;8.38;;;;;;;;;;5046048;28;20043;-66
2023/09/30 08:47:09;;;;;;;10.85;8.70;;;;;;;;;;5046278;28;20045;-65
2023/09/30 08:49:41;;;;;;;11.32;8.82;;;;;;;;;;5115233;27;20041;-62
2023/09/30 08:52:08;;;;;;;14.15;9.48;;;;;;;;;;5046462;28;20053;-66
2023/09/30 08:54:34;;;;;;;9.57;8.50;;;;;;;;;;5046608;28;20117;-65
2023/09/30 08:57:00;;;;;;;10.93;8.82;;;;;;;;;;5046464;28;20067;-67
2023/09/30 08:59:26;;;;;;;13.98;9.05;;;;;;;;;;5047086;28;20474;-67
2023/09/30 09:01:51;;;;;;;15.50;9.25;;;;;;;;;;5046572;28;20097;-65
2023/09/30 09:04:17;;;;;;;18.02;10.02;;;;;;;;;;5046105;28;20475;-63
2023/09/30 09:06:43;;;;;;;14.15;9.85;;;;;;;;;;5046301;28;20040;-63
2023/09/30 09:09:16;;;;;;;11.82;9.25;;;;;;;;;;5046363;28;20493;-63
2023/09/30 09:11:42;;;;;;;13.70;9.48;;;;;;;;;;5115012;27;20604;-63
2023/09/30 09:14:08;;;;;;;11.85;8.50;;;;;;;;;;5045424;27;20045;-63
2023/09/30 09:16:33;;;;;;;10.52;8.55;;;;;;;;;;5045517;28;20037;-63
2023/09/30 09:18:59;;;;;;;11.85;9.02;;;;;;;;;;5046036;28;20563;-64
2023/09/30 09:21:28;;;;;;;12.77;9.38;;;;;;;;;;5045964;28;20057;-66
2023/09/30 09:23:53;;;;;;;11.93;8.68;;;;;;;;;;5046172;28;20409;-67
2023/09/30 09:26:26;;;;;;;11.80;9.93;;;;;;;;;;5114103;27;20045;-63
2023/09/30 09:28:58;;;;;;;12.07;10.13;;;;;;;;;;5114413;27;20489;-64
2023/09/30 09:31:28;;;;;;;13.00;9.27;;;;;;;;;;5046109;28;20041;-65
2023/09/30 09:33:53;;;;;;;15.30;10.80;;;;;;;;;;5045676;28;20037;-64
2023/09/30 09:36:21;;;;;;;11.98;10.02;;;;;;;;;;5045749;28;20064;-63
2023/09/30 09:38:54;;;;;;;11.25;9.57;;;;;;;;;;5045898;28;20043;-65
2023/09/30 09:41:20;;;;;;;12.32;10.05;;;;;;;;;;5045894;28;20490;-65
2023/09/30 09:43:49;;;;;;;12.52;10.88;;;;;;;;;;5045848;28;20086;-66
2023/09/30 09:46:16;;;;;;;14.57;11.32;;;;;;;;;;5045626;28;20029;-64
2023/09/30 09:48:42;;;;;;;12.90;10.60;;;;;;;;;;5045348;28;20041;-63
2023/09/30 09:51:14;;;;;;;12.23;10.02;;;;;;;;;;5045525;28;20430;-64
2023/09/30 09:53:40;;;;;;;12.60;10.35;;;;;;;;;;5045763;28;20067;-65
2023/09/30 09:56:09;;;;;;;13.40;11.20;;;;;;;;;;5044585;28;20037;-64
2023/09/30 09:58:36;;;;;;;13.98;11.35;;;;;;;;;;5043766;28;20498;-62
2023/09/30 10:01:02;;;;;;;12.35;11.05;;;;;;;;;;5043502;28;20040;-63
2023/09/30 10:03:27;;;;;;;12.25;10.60;;;;;;;;;;5058022;28;20896;-64
2023/09/30 10:05:53;;;;;;;13.50;10.63;;;;;;;;;;5064392;28;20060;-64
2023/09/30 10:08:20;;;;;;;12.35;10.63;;;;;;;;;;5065144;28;20422;-64
2023/09/30 10:10:45;;;;;;;11.13;9.95;;;;;;;;;;5064955;28;20051;-64
2023/09/30 10:13:30;;;;;;;11.43;9.68;;;;;;;;;;5134481;27;20048;-63
2023/09/30 10:15:55;;;;;;;10.05;8.13;;;;;;;;;;5045234;28;20057;-64
2023/09/30 10:18:20;;;;;;;9.98;8.95;;;;;;;;;;5046313;27;20037;-63
2023/09/30 10:20:47;;;;;;;8.85;7.95;;;;;;;;;;5114758;28;20411;-63
2023/09/30 10:23:27;;;;;;;9.02;7.95;;;;;;;;;;5073376;27;20160;-63
2023/09/30 10:25:57;;;;;;;8.50;7.40;;;;;;;;;;5048703;28;20069;-63
2023/09/30 10:28:46;;;;;;;7.55;6.90;;;;;;;;;;5047119;28;20475;-63
2023/09/30 10:31:20;;;;;;;8.23;7.40;;;;;;;;;;5114507;28;20033;-59
2023/09/30 10:34:01;;;;;;;8.07;6.93;;;;;;;;;;5120271;27;20046;-58
2023/09/30 10:36:30;;;;;;;7.70;6.65;;;;;;;;;;5117330;27;20037;-58
2023/09/30 10:38:56;;;;;;;7.53;6.78;;;;;;;;;;5049230;28;20089;-58
2023/09/30 10:41:46;;;;;;;7.55;6.80;;;;;;;;;;5049513;28;20048;-57
2023/09/30 10:44:27;;;;;;;7.82;7.05;;;;;;;;;;5049391;28;20041;-58
2023/09/30 10:46:53;;;;;;;7.38;6.63;;;;;;;;;;5048962;28;20041;-56
2023/09/30 10:49:24;;;;;;;7.70;6.93;;;;;;;;;;5049684;28;20087;-56
2023/09/30 10:51:54;;;;;;;8.50;7.32;;;;;;;;;;5118834;27;20039;-56
2023/09/30 10:54:30;;;;;;;8.30;7.45;;;;;;;;;;5049534;28;20065;-57
2023/09/30 10:56:58;;;;;;;8.77;7.72;;;;;;;;;;5048941;28;20037;-58
2023/09/30 10:59:26;;;;;;;8.02;7.20;;;;;;;;;;5118207;27;20079;-59
2023/09/30 11:01:51;;;;;;;10.35;7.75;;;;;;;;;;5048256;28;20082;-57
2023/09/30 11:04:18;;;;;;;9.07;7.88;;;;;;;;;;5048885;28;20037;-57
2023/09/30 11:06:44;;;;;;;8.18;7.45;;;;;;;;;;5048403;28;20076;-58
2023/09/30 11:09:14;;;;;;;8.48;7.63;;;;;;;;;;5048731;28;20029;-57
2023/09/30 11:11:52;;;;;;;8.85;7.97;;;;;;;;;;5101180;27;20044;-57
2023/09/30 11:14:22;;;;;;;9.57;7.72;;;;;;;;;;5097742;27;20038;-57
2023/09/30 11:16:49;;;;;;;8.73;7.78;;;;;;;;;;5173913;27;20049;-58
2023/09/30 11:19:20;;;;;;;10.60;8.07;;;;;;;;;;5155722;27;20062;-58
2023/09/30 11:21:47;;;;;;;9.10;7.38;;;;;;;;;;5175005;27;20054;-58
2023/09/30 11:24:13;;;;;;;9.13;7.65;;;;;;;;;;5156516;27;20814;-59
2023/09/30 11:26:41;;;;;;;12.05;8.00;;;;;;;;;;5174746;27;20074;-57
2023/09/30 11:29:07;;;;;;;8.55;7.53;;;;;;;;;;5156286;27;20041;-57
2023/09/30 11:31:33;;;;;;;9.20;7.80;;;;;;;;;;5174841;27;20046;-57
2023/09/30 11:34:03;;;;;;;7.82;6.95;;;;;;;;;;5174569;27;20664;-58
2023/09/30 11:36:30;;;;;;;8.60;7.72;;;;;;;;;;5140915;27;20039;-58
2023/09/30 11:38:56;;;;;;;8.32;7.38;;;;;;;;;;5153316;27;20045;-58
2023/09/30 11:41:22;;;;;;;7.63;6.85;;;;;;;;;;5153232;27;20031;-58
2023/09/30 11:43:59;;;;;;;8.60;6.88;;;;;;;;;;5134183;27;20042;-58
2023/09/30 11:46:27;;;;;;;8.32;6.70;;;;;;;;;;5152765;27;20042;-58
2023/09/30 11:49:00;;;;;;;10.02;7.38;;;;;;;;;;5152165;27;20037;-58
2023/09/30 11:51:26;;;;;;;7.65;6.88;;;;;;;;;;5153659;27;20038;-58
2023/09/30 11:54:00;;;;;;;10.20;8.05;;;;;;;;;;5152892;27;20137;-58
2023/09/30 11:56:29;;;;;;;8.48;6.55;;;;;;;;;;5153857;27;20049;-58
2023/09/30 11:58:55;;;;;;;7.65;6.43;;;;;;;;;;5153601;27;20050;-58
2023/09/30 12:01:21;;;;;;;6.80;5.97;;;;;;;;;;5153616;27;20046;-60
2023/09/30 12:03:51;;;;;;;8.45;6.43;;;;;;;;;;5153847;27;20049;-59
2023/09/30 12:06:17;;;;;;;7.88;5.93;;;;;;;;;;5153925;27;20043;-57
2023/09/30 12:08:43;;;;;;;8.65;7.28;;;;;;;;;;5134572;27;20081;-55
2023/09/30 12:11:12;;;;;;;12.63;7.43;;;;;;;;;;5152459;27;20087;-56
2023/09/30 12:13:38;;;;;;;8.18;6.93;;;;;;;;;;5103218;27;20166;-56
2023/09/30 12:16:04;;;;;;;8.05;7.00;;;;;;;;;;5047834;28;20548;-55
2023/09/30 12:18:30;;;;;;;12.57;6.63;;;;;;;;;;5115479;27;20049;-56
2023/09/30 12:20:56;;;;;;;6.88;5.80;;;;;;;;;;5115001;27;20487;-57
2023/09/30 12:23:21;;;;;;;6.95;5.82;;;;;;;;;;5046632;28;20056;-58
2023/09/30 12:25:48;;;;;;;4.85;4.05;;;;;;;;;;5115322;27;20045;-57
2023/09/30 12:28:17;;;;;;;7.22;4.80;;;;;;;;;;5046547;28;20491;-57
2023/09/30 12:30:43;;;;;;;6.10;4.88;;;;;;;;;;5047112;28;20037;-57
2023/09/30 12:33:08;;;;;;;4.47;4.03;;;;;;;;;;5048011;28;20040;-57
2023/09/30 12:35:34;;;;;;;4.45;3.72;;;;;;;;;;5047933;28;20490;-57
2023/09/30 12:37:59;;;;;;;4.07;3.65;;;;;;;;;;5048035;28;20132;-57
2023/09/30 12:40:25;;;;;;;3.08;2.83;;;;;;;;;;5047758;28;20037;-60
2023/09/30 12:42:50;;;;;;;4.40;3.35;;;;;;;;;;5047813;28;20512;-65
2023/09/30 12:45:17;;;;;;;3.70;3.40;;;;;;;;;;5048036;28;20553;-60
2023/09/30 12:47:44;;;;;;;3.22;2.92;;;;;;;;;;5115113;27;20049;-62
2023/09/30 12:50:09;;;;;;;3.58;3.22;;;;;;;;;;5073478;27;20033;-58
2023/09/30 12:52:35;;;;;;;4.25;3.00;;;;;;;;;;5122222;27;20507;-56
2023/09/30 12:55:00;;;;;;;4.70;2.88;;;;;;;;;;5121809;27;20040;-55
2023/09/30 12:57:26;;;;;;;3.15;2.75;;;;;;;;;;5121378;27;20028;-60
2023/09/30 12:59:51;;;;;;;4.65;3.05;;;;;;;;;;5088382;27;20044;-57
2023/09/30 13:02:18;;;;;;;6.18;3.20;;;;;;;;;;5136624;27;20045;-57
2023/09/30 13:04:46;;;;;;;3.30;2.90;;;;;;;;;;5067463;28;20040;-57
2023/09/30 13:07:12;;;;;;;5.05;2.83;;;;;;;;;;5067248;28;20048;-58
2023/09/30 13:09:40;;;;;;;5.10;3.38;;;;;;;;;;5068091;28;20036;-63
2023/09/30 13:12:06;;;;;;;4.65;2.72;;;;;;;;;;5137018;27;20020;-58
2023/09/30 13:14:31;;;;;;;5.20;3.80;;;;;;;;;;5118856;27;20064;-57
2023/09/30 13:16:57;;;;;;;4.78;3.35;;;;;;;;;;5174450;27;20037;-56
2023/09/30 13:19:22;;;;;;;4.20;2.88;;;;;;;;;;5174286;27;20034;-57
2023/09/30 13:21:52;;;;;;;3.53;2.90;;;;;;;;;;5173141;27;20589;-56
2023/09/30 13:24:21;;;;;;;4.68;3.05;;;;;;;;;;5173535;27;20096;-56
2023/09/30 13:26:52;;;;;;;4.13;3.25;;;;;;;;;;5174521;27;20034;-56
2023/09/30 13:29:18;;;;;;;4.72;3.08;;;;;;;;;;5155805;27;20078;-56
2023/09/30 13:31:44;;;;;;;6.13;2.92;;;;;;;;;;5168135;27;20042;-56
2023/09/30 13:34:12;;;;;;;4.80;3.05;;;;;;;;;;5158378;27;20042;-57
2023/09/30 13:36:38;;;;;;;7.05;3.42;;;;;;;;;;5154244;27;20115;-56
2023/09/30 13:39:05;;;;;;;5.93;3.63;;;;;;;;;;5133941;27;20077;-56
2023/09/30 13:41:33;;;;;;;5.25;3.13;;;;;;;;;;5151401;27;20043;-56
2023/09/30 13:43:58;;;;;;;5.97;3.22;;;;;;;;;;5151890;27;20480;-56
2023/09/30 13:46:26;;;;;;;5.07;3.40;;;;;;;;;;5152203;27;20034;-57
2023/09/30 13:48:52;;;;;;;6.97;3.38;;;;;;;;;;5151285;27;20030;-57
2023/09/30 13:51:18;;;;;;;6.45;3.60;;;;;;;;;;5151013;27;20062;-56
2023/09/30 13:53:43;;;;;;;5.82;3.60;;;;;;;;;;5151979;27;20069;-56
2023/09/30 13:56:10;;;;;;;7.35;3.72;;;;;;;;;;5133115;27;20038;-56
2023/09/30 13:58:35;;;;;;;5.63;3.33;;;;;;;;;;5152126;27;20046;-56
2023/09/30 14:01:01;;;;;;;5.20;3.67;;;;;;;;;;5146725;27;20035;-56
2023/09/30 14:03:26;;;;;;;9.15;4.13;;;;;;;;;;5172743;27;20031;-57
2023/09/30 14:05:56;;;;;;;6.15;3.72;;;;;;;;;;5172491;27;20038;-56
2023/09/30 14:08:21;;;;;;;6.10;3.53;;;;;;;;;;5175591;27;20046;-56
2023/09/30 14:10:47;;;;;;;6.60;3.70;;;;;;;;;;5176587;27;20030;-56
2023/09/30 14:13:12;;;;;;;3.95;2.72;;;;;;;;;;5176217;27;20229;-56
2023/09/30 14:15:37;;;;;;;5.70;3.15;;;;;;;;;;5175997;27;20053;-56
2023/09/30 14:18:03;;;;;;;4.22;3.35;;;;;;;;;;5157773;27;20038;-56
2023/09/30 14:20:29;;;;;;;5.43;3.10;;;;;;;;;;5176445;27;20053;-56
2023/09/30 14:22:57;;;;;;;6.45;2.78;;;;;;;;;;5176467;27;20038;-56
2023/09/30 14:25:23;;;;;;;7.05;3.28;;;;;;;;;;5176349;27;20033;-56
2023/09/30 14:27:52;;;;;;;5.35;2.95;;;;;;;;;;5176029;27;20038;-56
2023/09/30 14:30:19;;;;;;;4.05;2.83;;;;;;;;;;5157355;27;20501;-56
2023/09/30 14:32:45;;;;;;;4.75;2.70;;;;;;;;;;5176060;27;20093;-56
2023/09/30 14:35:10;;;;;;;4.68;2.80;;;;;;;;;;5161063;27;20480;-57
2023/09/30 14:37:36;;;;;;;5.40;3.00;;;;;;;;;;5155146;27;20031;-56
2023/09/30 14:40:05;;;;;;;8.02;3.38;;;;;;;;;;5155277;27;20426;-56
2023/09/30 14:42:30;;;;;;;5.63;3.00;;;;;;;;;;5136420;27;20047;-56
2023/09/30 14:44:56;;;;;;;4.20;2.58;;;;;;;;;;5155175;27;20050;-57
2023/09/30 14:47:22;;;;;;;5.30;2.95;;;;;;;;;;5155044;27;20039;-56
2023/09/30 14:49:47;;;;;;;7.45;3.25;;;;;;;;;;5136302;27;20045;-57
2023/09/30 14:52:13;;;;;;;3.20;2.50;;;;;;;;;;5155527;27;20046;-56
2023/09/30 14:54:39;;;;;;;4.07;2.72;;;;;;;;;;5154290;27;20038;-56
2023/09/30 14:57:04;;;;;;;5.20;2.47;;;;;;;;;;5135739;27;20042;-56
2023/09/30 14:59:32;;;;;;;4.38;2.58;;;;;;;;;;5135809;27;20345;-56
2023/09/30 15:01:58;;;;;;;4.57;3.25;;;;;;;;;;5154714;27;20050;-56
2023/09/30 15:04:24;;;;;;;5.65;3.42;;;;;;;;;;5154262;27;20039;-56
2023/09/30 15:06:51;;;;;;;6.85;2.95;;;;;;;;;;5154680;27;20023;-56
2023/09/30 15:09:16;;;;;;;3.72;2.53;;;;;;;;;;5154649;27;20411;-56
2023/09/30 15:11:42;;;;;;;5.88;2.67;;;;;;;;;;5137254;27;20051;-56
2023/09/30 15:14:07;;;;;;;3.88;2.28;;;;;;;;;;5115225;27;20096;-56